This is the latest recevied weather packets stored in our database for station/object DG6HD-13. If no packets are shown the sender has not sent any weather packets the latest 10 day(s).
| Time | Temp. | Humidity | Pressure | Rain* | Wind** | Luminosity | Snow |
|---|---|---|---|---|---|---|---|
| 1778139054 | 7.78° C | 59% | 1015.6 hPa | - | - | - | - |
| 1778138153 | 7.78° C | 59% | 1015.5 hPa | - | - | - | - |
| 1778137252 | 7.78° C | 59% | 1015.4 hPa | - | - | - | - |
| 1778136351 | 7.22° C | 60% | 1015.3 hPa | - | - | - | - |
| 1778135451 | 7.22° C | 60% | 1015.2 hPa | - | - | - | - |
| 1778134549 | 7.22° C | 60% | 1015 hPa | - | - | - | - |
| 1778133649 | 7.22° C | 59% | 1014.9 hPa | - | - | - | - |
| 1778132748 | 7.22° C | 59% | 1014.6 hPa | - | - | - | - |
| 1778131847 | 7.22° C | 58% | 1014.6 hPa | - | - | - | - |
| 1778130946 | 7.22° C | 58% | 1014.5 hPa | - | - | - | - |
| 1778130045 | 7.22° C | 57% | 1014.3 hPa | - | - | - | - |
| 1778129145 | 9.44° C | 52% | 1014.1 hPa | - | - | - | - |
| 1778128244 | 7.22° C | 59% | 1014 hPa | - | - | - | - |
| 1778127343 | 7.22° C | 58% | 1014 hPa | - | - | - | - |
| 1778126442 | 7.78° C | 57% | 1013.9 hPa | - | - | - | - |
| 1778125541 | 8.89° C | 53% | 1013.8 hPa | - | - | - | - |
| 1778124640 | 6.67° C | 58% | 1013.5 hPa | - | - | - | - |
| 1778123740 | 7.22° C | 59% | 1013.6 hPa | - | - | - | - |
| 1778122839 | 7.22° C | 57% | 1013.5 hPa | - | - | - | - |
| 1778121938 | 9.44° C | 53% | 1013.4 hPa | - | - | - | - |
| 1778121037 | 6.67° C | 59% | 1013.4 hPa | - | - | - | - |
| 1778120136 | 7.22° C | 59% | 1013.2 hPa | - | - | - | - |
| 1778119235 | 7.22° C | 58% | 1013.4 hPa | - | - | - | - |
| 1778118335 | 8.89° C | 54% | 1013 hPa | - | - | - | - |
| 1778117434 | 7.22° C | 59% | 1013.1 hPa | - | - | - | - |
* Rain since midnight (hover to see other rain measurements)
** Current wind speed in m/s (hover to see current wind gust speed)